createdAt,value
2023-03-25T00:00:14.374Z,10.73
2023-03-25T00:02:42.503Z,10.70
2023-03-25T00:05:10.849Z,10.99
2023-03-25T00:07:37.751Z,11.04
2023-03-25T00:10:04.863Z,10.99
2023-03-25T00:12:31.519Z,10.77
2023-03-25T00:14:58.310Z,11.11
2023-03-25T00:17:31.887Z,10.82
2023-03-25T00:20:00.500Z,11.12
2023-03-25T00:22:27.321Z,11.07
2023-03-25T00:24:54.026Z,10.90
2023-03-25T00:27:20.670Z,10.90
2023-03-25T00:29:47.414Z,11.00
2023-03-25T00:32:15.732Z,10.78
2023-03-25T00:34:47.304Z,10.82
2023-03-25T00:37:21.841Z,10.62
2023-03-25T00:39:48.970Z,10.51
2023-03-25T00:42:17.514Z,10.59
2023-03-25T00:44:44.308Z,10.68
2023-03-25T00:47:12.469Z,10.82
2023-03-25T00:49:39.112Z,10.83
2023-03-25T00:52:05.733Z,10.58
2023-03-25T00:54:34.316Z,10.63
2023-03-25T00:57:01.148Z,11.01
2023-03-25T00:59:27.911Z,10.89
2023-03-25T01:01:56.145Z,10.78
2023-03-25T01:04:22.851Z,10.80
2023-03-25T01:06:52.063Z,10.65
2023-03-25T01:09:19.979Z,10.46
2023-03-25T01:11:48.266Z,10.77
2023-03-25T01:14:21.361Z,10.52
2023-03-25T01:16:48.138Z,10.74
2023-03-25T01:19:15.697Z,10.72
2023-03-25T01:21:42.496Z,10.93
2023-03-25T01:24:12.766Z,10.63
2023-03-25T01:26:41.370Z,10.64
2023-03-25T01:29:07.988Z,10.90
2023-03-25T01:31:34.592Z,10.95
2023-03-25T01:34:01.092Z,10.60
2023-03-25T01:36:31.210Z,10.73
2023-03-25T01:39:01.370Z,10.80
2023-03-25T01:41:42.360Z,10.76
2023-03-25T01:44:19.628Z,10.60
2023-03-25T01:46:49.512Z,10.39
2023-03-25T01:49:24.609Z,10.51
2023-03-25T01:51:56.967Z,10.52
2023-03-25T01:54:24.380Z,10.55
2023-03-25T01:56:52.441Z,10.61
2023-03-25T01:59:24.882Z,10.64
2023-03-25T02:01:53.647Z,10.62
2023-03-25T02:04:45.330Z,10.79
2023-03-25T02:07:13.026Z,10.56
2023-03-25T02:09:39.691Z,10.36
2023-03-25T02:12:07.514Z,10.36
2023-03-25T02:14:37.400Z,10.25
2023-03-25T02:17:33.035Z,10.37
2023-03-25T02:20:27.588Z,10.32
2023-03-25T02:23:21.915Z,10.38
2023-03-25T02:26:14.013Z,10.40
2023-03-25T02:29:05.112Z,10.46
2023-03-25T02:31:53.692Z,10.40
2023-03-25T02:34:37.922Z,10.30
2023-03-25T02:37:49.903Z,10.43
2023-03-25T02:40:26.786Z,10.32
2023-03-25T02:43:27.292Z,10.32
2023-03-25T02:45:57.842Z,10.25
2023-03-25T02:48:40.748Z,10.18
2023-03-25T02:51:19.110Z,10.15
2023-03-25T02:53:48.600Z,10.31
2023-03-25T02:56:16.880Z,10.14
2023-03-25T02:58:46.739Z,9.92
2023-03-25T03:01:15.005Z,9.91
2023-03-25T03:03:42.367Z,10.08
2023-03-25T03:06:17.453Z,9.82
2023-03-25T03:08:50.906Z,10.09
2023-03-25T03:11:44.936Z,10.18
2023-03-25T03:14:41.933Z,9.98
2023-03-25T03:17:20.145Z,9.96
2023-03-25T03:20:02.082Z,9.78
2023-03-25T03:22:41.213Z,9.76
2023-03-25T03:25:27.018Z,9.67
2023-03-25T03:28:05.888Z,9.45
2023-03-25T03:30:48.376Z,9.59
2023-03-25T03:33:26.074Z,9.60
2023-03-25T03:35:57.547Z,9.25
2023-03-25T03:38:34.787Z,9.41
2023-03-25T03:41:07.969Z,9.61
2023-03-25T03:43:45.274Z,9.52
2023-03-25T03:46:27.511Z,9.69
2023-03-25T03:48:59.674Z,9.60
2023-03-25T03:51:29.543Z,9.67
2023-03-25T03:54:00.704Z,9.65
2023-03-25T03:56:53.409Z,9.67
2023-03-25T03:59:30.020Z,9.49
2023-03-25T04:02:01.515Z,9.71
2023-03-25T04:04:28.325Z,9.49
2023-03-25T04:07:14.806Z,9.51
2023-03-25T04:09:55.193Z,9.81
2023-03-25T04:12:28.065Z,9.74
2023-03-25T04:14:56.161Z,9.78
2023-03-25T04:17:24.213Z,9.70
2023-03-25T04:19:53.539Z,9.55
2023-03-25T04:22:21.818Z,9.63
2023-03-25T04:24:52.010Z,9.60
2023-03-25T04:27:19.899Z,9.78
2023-03-25T04:29:47.797Z,9.79
2023-03-25T04:32:15.244Z,9.46
2023-03-25T04:34:42.046Z,9.65
2023-03-25T04:37:08.585Z,9.58
2023-03-25T04:39:35.538Z,9.55
2023-03-25T04:42:03.670Z,9.73
2023-03-25T04:44:33.774Z,9.82
2023-03-25T04:47:02.353Z,9.89
2023-03-25T04:49:28.985Z,10.04
2023-03-25T04:51:56.970Z,9.78
2023-03-25T04:54:23.963Z,9.97
2023-03-25T04:56:52.374Z,9.98
2023-03-25T04:59:21.126Z,10.02
2023-03-25T05:01:49.050Z,9.79
2023-03-25T05:04:17.625Z,9.76
2023-03-25T05:06:50.615Z,9.84
2023-03-25T05:09:24.061Z,9.85
2023-03-25T05:11:51.982Z,10.03
2023-03-25T05:14:20.786Z,9.86
2023-03-25T05:16:47.619Z,9.82
2023-03-25T05:19:15.760Z,9.89
2023-03-25T05:21:42.477Z,9.87
2023-03-25T05:24:11.210Z,9.76
2023-03-25T05:26:39.705Z,9.75
2023-03-25T05:29:15.678Z,9.75
2023-03-25T05:31:48.953Z,9.68
2023-03-25T05:34:17.182Z,9.77
2023-03-25T05:36:44.250Z,9.62
2023-03-25T05:39:11.077Z,9.74
2023-03-25T05:41:41.662Z,9.87
2023-03-25T05:44:10.418Z,9.66
2023-03-25T05:46:37.203Z,9.65
2023-03-25T05:49:03.943Z,9.65
2023-03-25T05:51:37.348Z,9.58
2023-03-25T05:54:08.746Z,9.80
2023-03-25T05:56:36.881Z,9.74
2023-03-25T05:59:03.909Z,9.46
2023-03-25T06:01:33.373Z,9.40
2023-03-25T06:04:02.873Z,9.77
2023-03-25T06:06:34.176Z,9.48
2023-03-25T06:09:02.309Z,9.87
2023-03-25T06:11:29.557Z,9.52
2023-03-25T06:13:56.488Z,9.61
2023-03-25T06:16:29.872Z,9.52
2023-03-25T06:18:59.823Z,9.57
2023-03-25T06:21:30.235Z,9.52
2023-03-25T06:23:58.836Z,9.56
2023-03-25T06:26:26.444Z,9.54
2023-03-25T06:28:53.443Z,9.61
2023-03-25T06:31:23.090Z,9.92
2023-03-25T06:33:50.848Z,9.51
2023-03-25T06:36:20.237Z,9.76
2023-03-25T06:38:48.196Z,9.78
2023-03-25T06:41:20.479Z,9.80
2023-03-25T06:43:54.285Z,9.33
2023-03-25T06:46:39.586Z,9.56
2023-03-25T06:49:16.368Z,9.32
2023-03-25T06:51:43.150Z,9.47
2023-03-25T06:54:09.752Z,9.53
2023-03-25T06:56:36.399Z,9.58
2023-03-25T06:59:03.946Z,9.79
2023-03-25T07:01:30.676Z,9.73
2023-03-25T07:03:57.242Z,9.74
2023-03-25T07:06:24.718Z,9.66
2023-03-25T07:08:51.858Z,9.66
2023-03-25T07:11:27.233Z,9.55
2023-03-25T07:13:54.447Z,9.64
2023-03-25T07:16:22.197Z,9.42
2023-03-25T07:18:50.822Z,9.36
2023-03-25T07:21:18.440Z,9.67
2023-03-25T07:23:45.195Z,9.69
2023-03-25T07:26:13.375Z,9.76
2023-03-25T07:28:40.867Z,9.50
2023-03-25T07:31:08.907Z,9.54
2023-03-25T07:33:36.496Z,9.55
2023-03-25T07:36:04.627Z,9.80
2023-03-25T07:38:31.226Z,9.71
2023-03-25T07:40:58.110Z,9.95
2023-03-25T07:43:24.736Z,9.86
2023-03-25T07:45:56.401Z,9.77
2023-03-25T07:48:24.024Z,9.70
2023-03-25T07:50:52.588Z,9.86
2023-03-25T07:53:19.412Z,9.77
2023-03-25T07:55:46.438Z,9.92
2023-03-25T07:58:13.318Z,9.80
2023-03-25T08:00:39.920Z,9.88
2023-03-25T08:03:06.914Z,9.84
2023-03-25T08:05:33.603Z,10.08
2023-03-25T08:08:00.403Z,10.27
2023-03-25T08:10:27.242Z,9.90
2023-03-25T08:12:54.236Z,10.01
2023-03-25T08:15:24.598Z,10.41
2023-03-25T08:17:54.181Z,10.26
2023-03-25T08:20:21.249Z,10.23
2023-03-25T08:22:48.071Z,10.31
2023-03-25T08:25:14.789Z,10.17
2023-03-25T08:27:41.510Z,10.31
2023-03-25T08:30:10.226Z,10.34
2023-03-25T08:32:38.517Z,10.28
2023-03-25T08:35:06.103Z,10.37
2023-03-25T08:37:37.778Z,10.36
2023-03-25T08:40:09.125Z,10.36
2023-03-25T08:42:36.939Z,10.33
2023-03-25T08:45:05.625Z,10.33
2023-03-25T08:47:32.296Z,10.39
2023-03-25T08:49:58.970Z,10.25
2023-03-25T08:52:25.643Z,10.24
2023-03-25T08:54:52.385Z,10.55
2023-03-25T08:57:18.983Z,10.59
2023-03-25T08:59:45.920Z,10.71
2023-03-25T09:02:13.149Z,10.51
2023-03-25T09:04:39.840Z,10.38
2023-03-25T09:07:12.512Z,10.34
2023-03-25T09:09:40.707Z,10.56
2023-03-25T09:12:08.194Z,10.77
2023-03-25T09:14:34.797Z,10.86
2023-03-25T09:17:01.396Z,10.86
2023-03-25T09:19:28.044Z,11.25
2023-03-25T09:21:54.657Z,11.44
2023-03-25T09:24:22.810Z,11.56
2023-03-25T09:26:49.738Z,11.68
2023-03-25T09:29:16.909Z,11.45
2023-03-25T09:31:43.614Z,11.35
2023-03-25T09:34:11.093Z,11.45
2023-03-25T09:36:37.896Z,11.27
2023-03-25T09:39:06.946Z,11.30
2023-03-25T09:41:51.705Z,11.43
2023-03-25T09:44:25.347Z,11.44
2023-03-25T09:46:52.268Z,11.46
2023-03-25T09:49:28.058Z,11.74
2023-03-25T09:51:56.102Z,11.52
2023-03-25T09:54:31.804Z,11.54
2023-03-25T09:57:04.956Z,11.46
2023-03-25T09:59:41.928Z,11.34
2023-03-25T10:02:28.090Z,11.45
2023-03-25T10:05:14.455Z,11.73
2023-03-25T10:07:50.556Z,11.53
2023-03-25T10:10:28.604Z,11.50
2023-03-25T10:13:19.892Z,11.48
2023-03-25T10:16:10.805Z,11.25
2023-03-25T10:18:49.678Z,11.40
2023-03-25T10:21:53.437Z,11.38
2023-03-25T10:24:27.418Z,11.31
2023-03-25T10:27:41.525Z,11.19
2023-03-25T10:30:23.591Z,10.97
2023-03-25T10:32:55.382Z,10.98
2023-03-25T10:35:30.082Z,11.32
2023-03-25T10:38:13.945Z,11.42
2023-03-25T10:40:50.161Z,11.35
2023-03-25T10:43:31.293Z,11.20
2023-03-25T10:46:17.887Z,11.20
2023-03-25T10:48:46.161Z,11.68
2023-03-25T10:51:35.617Z,11.61
2023-03-25T10:54:02.412Z,11.72
2023-03-25T10:56:36.872Z,12.02
2023-03-25T10:59:28.017Z,11.55
2023-03-25T11:01:56.153Z,11.67
2023-03-25T11:04:35.285Z,11.80
2023-03-25T11:07:05.597Z,11.70
2023-03-25T11:09:34.256Z,11.68
2023-03-25T11:12:02.597Z,11.43
2023-03-25T11:14:30.861Z,11.10
2023-03-25T11:17:03.871Z,10.79
2023-03-25T11:19:41.733Z,10.86
2023-03-25T11:22:22.107Z,10.98
2023-03-25T11:24:57.911Z,11.28
2023-03-25T11:27:28.437Z,11.53
2023-03-25T11:30:17.019Z,11.67
2023-03-25T11:32:43.598Z,11.69
2023-03-25T11:35:23.111Z,11.49
2023-03-25T11:37:55.169Z,11.58
2023-03-25T11:40:22.257Z,11.48
2023-03-25T11:42:54.688Z,11.46
2023-03-25T11:45:25.037Z,11.66
2023-03-25T11:47:52.529Z,11.55
2023-03-25T11:50:25.621Z,11.81
2023-03-25T11:52:56.649Z,12.04
2023-03-25T11:55:43.806Z,12.01
2023-03-25T11:58:15.941Z,11.79
2023-03-25T12:00:47.782Z,11.99
2023-03-25T12:03:14.432Z,11.91
2023-03-25T12:05:42.116Z,12.06
2023-03-25T12:08:15.522Z,11.85
2023-03-25T12:10:51.262Z,11.82
2023-03-25T12:13:30.267Z,11.32
2023-03-25T12:16:22.003Z,11.41
2023-03-25T12:19:02.798Z,11.43
2023-03-25T12:21:54.967Z,11.65
2023-03-25T12:24:48.330Z,11.50
2023-03-25T12:27:31.052Z,11.33
2023-03-25T12:30:34.766Z,10.98
2023-03-25T12:33:23.075Z,10.93
2023-03-25T12:35:57.922Z,10.73
2023-03-25T12:38:32.706Z,10.28
2023-03-25T12:41:23.233Z,10.41
2023-03-25T12:44:10.849Z,10.10
2023-03-25T12:47:15.477Z,10.23
2023-03-25T12:50:32.297Z,10.45
2023-03-25T12:53:17.333Z,10.22
2023-03-25T12:55:52.083Z,10.56
2023-03-25T12:58:34.684Z,10.57
2023-03-25T13:01:11.197Z,10.77
2023-03-25T13:03:43.968Z,10.70
2023-03-25T13:06:19.726Z,10.73
2023-03-25T13:09:25.477Z,10.72
2023-03-25T13:11:57.364Z,10.53
2023-03-25T13:14:36.729Z,10.49
2023-03-25T13:17:11.118Z,10.26
2023-03-25T13:19:42.355Z,10.53
2023-03-25T13:22:29.112Z,10.66
2023-03-25T13:24:59.327Z,10.66
2023-03-25T13:27:32.219Z,10.55
2023-03-25T13:30:00.875Z,10.75
2023-03-25T13:32:47.894Z,10.97
2023-03-25T13:35:20.675Z,11.37
2023-03-25T13:37:52.951Z,11.70
2023-03-25T13:40:25.149Z,12.25
2023-03-25T13:43:19.488Z,12.81
2023-03-25T13:45:55.002Z,13.29
2023-03-25T13:48:49.384Z,13.29
2023-03-25T13:51:16.397Z,13.03
2023-03-25T13:53:57.106Z,12.27
2023-03-25T13:56:33.049Z,12.38
2023-03-25T13:59:19.513Z,12.00
2023-03-25T14:02:11.333Z,11.62
2023-03-25T14:05:06.273Z,11.40
2023-03-25T14:08:10.770Z,11.27
2023-03-25T14:10:49.978Z,11.36
2023-03-25T14:13:31.069Z,11.35
2023-03-25T14:16:14.708Z,11.43
2023-03-25T14:18:44.454Z,11.37
2023-03-25T14:21:28.269Z,11.54
2023-03-25T14:24:04.292Z,11.61
2023-03-25T14:26:34.528Z,11.63
2023-03-25T14:29:09.021Z,11.26
2023-03-25T14:31:35.971Z,10.72
2023-03-25T14:34:02.720Z,10.70
2023-03-25T14:36:42.146Z,10.36
2023-03-25T14:39:10.594Z,10.11
2023-03-25T14:42:08.238Z,10.23
2023-03-25T14:44:41.171Z,10.46
2023-03-25T14:47:17.194Z,10.37
2023-03-25T14:50:05.330Z,10.57
2023-03-25T14:52:46.678Z,10.57
2023-03-25T14:55:41.415Z,10.56
2023-03-25T14:58:17.249Z,10.46
2023-03-25T15:01:12.623Z,10.41
2023-03-25T15:03:44.048Z,10.71
2023-03-25T15:06:28.759Z,10.55
2023-03-25T15:08:57.838Z,10.62
2023-03-25T15:11:33.841Z,10.41
2023-03-25T15:14:04.425Z,10.66
2023-03-25T15:16:47.549Z,10.63
2023-03-25T15:19:18.283Z,10.70
2023-03-25T15:21:57.093Z,11.06
2023-03-25T15:24:32.263Z,10.95
2023-03-25T15:27:36.502Z,10.97
2023-03-25T15:30:44.768Z,11.12
2023-03-25T15:33:32.520Z,11.60
2023-03-25T15:36:19.528Z,11.46
2023-03-25T15:38:51.814Z,11.27
2023-03-25T15:41:32.223Z,11.67
2023-03-25T15:44:20.950Z,11.76
2023-03-25T15:47:15.681Z,11.39
2023-03-25T15:50:01.174Z,11.25
2023-03-25T15:52:49.392Z,11.54
2023-03-25T15:56:05.632Z,11.19
2023-03-25T15:58:41.854Z,10.85
2023-03-25T16:01:25.713Z,10.82
2023-03-25T16:04:25.328Z,11.14
2023-03-25T16:06:56.670Z,11.07
2023-03-25T16:09:28.565Z,10.81
2023-03-25T16:12:01.367Z,11.00
2023-03-25T16:14:33.282Z,10.95
2023-03-25T16:17:03.624Z,10.83
2023-03-25T16:19:43.105Z,11.04
2023-03-25T16:22:15.932Z,11.08
2023-03-25T16:24:44.150Z,10.84
2023-03-25T16:27:13.134Z,10.64
2023-03-25T16:29:39.964Z,10.99
2023-03-25T16:32:06.889Z,10.77
2023-03-25T16:34:40.657Z,10.90
2023-03-25T16:37:07.740Z,9.72
2023-03-25T16:39:36.702Z,9.73
2023-03-25T16:42:23.359Z,9.96
2023-03-25T16:44:49.986Z,9.69
2023-03-25T16:47:16.962Z,9.82
2023-03-25T16:49:48.298Z,9.82
2023-03-25T16:52:19.625Z,9.92
2023-03-25T16:54:52.266Z,9.75
2023-03-25T16:57:24.263Z,9.59
2023-03-25T16:59:53.040Z,9.64
2023-03-25T17:02:42.422Z,9.69
2023-03-25T17:05:26.105Z,9.84
2023-03-25T17:07:57.453Z,9.89
2023-03-25T17:10:29.479Z,9.66
2023-03-25T17:13:09.589Z,9.79
2023-03-25T17:15:37.104Z,9.88
2023-03-25T17:18:13.087Z,9.65
2023-03-25T17:20:42.396Z,9.86
2023-03-25T17:23:37.308Z,10.00
2023-03-25T17:26:13.358Z,9.97
2023-03-25T17:29:01.895Z,9.85
2023-03-25T17:31:34.727Z,10.04
2023-03-25T17:34:10.848Z,9.55
2023-03-25T17:36:40.431Z,9.23
2023-03-25T17:39:27.683Z,9.19
2023-03-25T17:42:00.464Z,9.18
2023-03-25T17:44:37.307Z,9.33
2023-03-25T17:47:05.546Z,8.95
2023-03-25T17:49:32.781Z,9.12
2023-03-25T17:51:59.406Z,8.99
2023-03-25T17:54:26.256Z,8.84
2023-03-25T17:56:53.047Z,8.74
2023-03-25T17:59:23.109Z,9.18
2023-03-25T18:01:50.079Z,9.03
2023-03-25T18:04:17.938Z,9.16
2023-03-25T18:06:44.808Z,9.02
2023-03-25T18:09:23.591Z,8.47
2023-03-25T18:11:53.563Z,8.77
2023-03-25T18:14:21.423Z,8.92
2023-03-25T18:16:48.048Z,8.75
2023-03-25T18:19:23.653Z,8.71
2023-03-25T18:21:50.450Z,8.61
2023-03-25T18:24:17.153Z,8.58
2023-03-25T18:26:44.629Z,8.72
2023-03-25T18:29:24.239Z,8.84
2023-03-25T18:31:52.256Z,8.80
2023-03-25T18:34:20.947Z,8.78
2023-03-25T18:36:49.415Z,8.89
2023-03-25T18:39:19.534Z,8.81
2023-03-25T18:41:46.139Z,8.63
2023-03-25T18:44:16.955Z,8.62
2023-03-25T18:46:43.607Z,8.48
2023-03-25T18:49:19.060Z,8.77
2023-03-25T18:51:48.254Z,8.47
2023-03-25T18:54:15.000Z,8.61
2023-03-25T18:56:42.121Z,8.52
2023-03-25T18:59:15.235Z,8.56
2023-03-25T19:01:42.438Z,8.57
2023-03-25T19:04:09.170Z,8.43
2023-03-25T19:06:38.968Z,8.59
2023-03-25T19:09:08.512Z,8.26
2023-03-25T19:11:35.752Z,8.26
2023-03-25T19:14:02.389Z,8.38
2023-03-25T19:16:29.130Z,8.45
2023-03-25T19:18:55.801Z,8.40
2023-03-25T19:21:22.407Z,8.65
2023-03-25T19:23:49.022Z,8.53
2023-03-25T19:26:15.776Z,8.72
2023-03-25T19:28:42.628Z,8.36
2023-03-25T19:31:13.342Z,8.50
2023-03-25T19:33:40.145Z,8.50
2023-03-25T19:36:08.158Z,8.41
2023-03-25T19:38:34.852Z,8.37
2023-03-25T19:41:12.981Z,8.36
2023-03-25T19:43:39.840Z,8.52
2023-03-25T19:46:06.998Z,8.46
2023-03-25T19:48:34.893Z,8.42
2023-03-25T19:51:01.667Z,8.56
2023-03-25T19:53:29.464Z,8.44
2023-03-25T19:55:56.818Z,8.53
2023-03-25T19:58:24.596Z,8.43
2023-03-25T20:00:51.785Z,8.46
2023-03-25T20:03:22.088Z,8.52
2023-03-25T20:05:55.526Z,8.31
2023-03-25T20:08:23.158Z,8.41
2023-03-25T20:10:49.746Z,8.55
2023-03-25T20:13:16.285Z,8.66
2023-03-25T20:15:42.944Z,8.39
2023-03-25T20:18:10.591Z,8.50
2023-03-25T20:20:37.291Z,8.25
2023-03-25T20:23:03.836Z,8.45
2023-03-25T20:25:30.578Z,8.23
2023-03-25T20:27:57.217Z,8.51
2023-03-25T20:30:24.760Z,8.60
2023-03-25T20:32:51.389Z,8.60
2023-03-25T20:35:18.993Z,8.46
2023-03-25T20:37:48.742Z,8.31
2023-03-25T20:40:17.874Z,8.50
2023-03-25T20:42:46.819Z,8.30
2023-03-25T20:45:16.446Z,8.28
2023-03-25T20:47:43.421Z,8.25
2023-03-25T20:50:16.376Z,8.21
2023-03-25T20:52:44.772Z,8.10
2023-03-25T20:55:14.668Z,8.28
2023-03-25T20:57:41.645Z,8.28
2023-03-25T21:00:13.220Z,8.43
2023-03-25T21:02:41.660Z,8.36
2023-03-25T21:05:08.537Z,8.23
2023-03-25T21:07:40.016Z,8.09
2023-03-25T21:10:08.231Z,8.12
2023-03-25T21:12:44.037Z,8.28
2023-03-25T21:15:13.081Z,8.25
2023-03-25T21:17:39.742Z,8.20
2023-03-25T21:20:09.253Z,8.41
2023-03-25T21:22:43.664Z,8.24
2023-03-25T21:25:14.580Z,8.32
2023-03-25T21:27:44.789Z,8.23
2023-03-25T21:30:12.051Z,8.15
2023-03-25T21:32:39.149Z,8.20
2023-03-25T21:35:06.891Z,8.38
2023-03-25T21:37:37.756Z,8.54
2023-03-25T21:40:07.904Z,8.43
2023-03-25T21:42:34.617Z,8.70
2023-03-25T21:45:02.536Z,8.55
2023-03-25T21:47:29.160Z,8.61
2023-03-25T21:49:55.846Z,8.45
2023-03-25T21:52:26.239Z,8.40
2023-03-25T21:54:54.351Z,8.52
2023-03-25T21:57:21.876Z,8.44
2023-03-25T21:59:48.550Z,8.38
2023-03-25T22:02:15.100Z,8.90
2023-03-25T22:04:41.764Z,8.87
2023-03-25T22:07:08.500Z,8.77
2023-03-25T22:09:35.106Z,8.95
2023-03-25T22:12:01.747Z,8.84
2023-03-25T22:14:28.301Z,8.59
2023-03-25T22:16:55.008Z,8.47
2023-03-25T22:19:24.093Z,8.79
2023-03-25T22:21:51.213Z,8.88
2023-03-25T22:24:17.787Z,8.79
2023-03-25T22:26:44.533Z,8.96
2023-03-25T22:29:11.572Z,8.88
2023-03-25T22:31:42.842Z,8.90
2023-03-25T22:34:12.786Z,8.89
2023-03-25T22:36:46.240Z,8.87
2023-03-25T22:39:12.921Z,9.18
2023-03-25T22:41:39.544Z,9.11
2023-03-25T22:44:06.836Z,8.67
2023-03-25T22:46:33.897Z,8.83
2023-03-25T22:49:01.121Z,8.89
2023-03-25T22:51:27.817Z,8.95
2023-03-25T22:53:54.451Z,9.18
2023-03-25T22:56:23.441Z,8.90
2023-03-25T22:58:52.989Z,9.01
2023-03-25T23:01:20.835Z,9.14
2023-03-25T23:03:47.598Z,9.15
2023-03-25T23:06:14.427Z,9.02
2023-03-25T23:08:42.015Z,9.06
2023-03-25T23:11:08.541Z,9.02
2023-03-25T23:13:35.607Z,9.16
2023-03-25T23:16:05.528Z,9.08
2023-03-25T23:18:33.199Z,9.18
2023-03-25T23:20:59.879Z,9.22
2023-03-25T23:23:28.786Z,9.29
2023-03-25T23:26:04.722Z,9.31
2023-03-25T23:28:36.794Z,9.11
2023-03-25T23:31:09.197Z,9.15
2023-03-25T23:33:36.112Z,9.03
2023-03-25T23:36:05.502Z,9.04
2023-03-25T23:38:32.420Z,8.83
2023-03-25T23:41:10.073Z,9.10
2023-03-25T23:43:37.342Z,9.10
2023-03-25T23:46:06.379Z,8.96
2023-03-25T23:48:40.523Z,9.07
2023-03-25T23:51:10.531Z,9.13
2023-03-25T23:53:39.343Z,8.88
2023-03-25T23:56:06.929Z,9.13
2023-03-25T23:58:35.007Z,9.24
